メインページ
METAR-TAF:

METAR-TAF

空港 :

イカルイト空港

イカルイト, ヌナブト準州, カナダ

緯度: 63-45N, 経度: 068-33W, 海抜: 34m

現時点の気象観測

当レポートは29分前の23:00(UTC)に作成
の風 3kt、北/北西から北東の間で変化する
気温 0°C
湿度 86%
気圧 1016 hPa
視程: 32.2km
高度3800ftの雲はほとんどない
高度6000ftの雲は散在している
高度11000ftの千切れ雲あり

METAR: CYFB 242300Z 36003KT 340V050 20SM FEW038 SCT060 BKN110 00/M02 A2999 RMK SC1SC3AC3 SC TR SLP161

時間: 19:29 (23:29 UTC)

予報

当レポートは5時間51分前の17:38(UTC)に作成
予報は24日の 18時(UTC)から 25日の 18時(UTC)まで有効
北/北西の風 15kt
視程: 10km
高度3000ftの千切れ雲あり
高度10000ftの曇り
24日の 18時(UTC)から 24日の 23時(UTC)まで一時的に
視程: 8.0km
高度3000ftの曇り
小雪
24日の 19時(UTC)から 24日の 21時(UTC)まで徐々に
西/北西の風 12kt、最大22ktの突風を伴う
24日の 2300時(UTC)から
西/北西の風 12kt、最大22ktの突風を伴う
視程: 10km
高度1500ftの千切れ雲あり
24日の 23時(UTC)から 25日の 15時(UTC)まで一時的に
視程: 10km
高度2500ftの千切れ雲あり
小雪
25日の 00時(UTC)から 25日の 02時(UTC)まで徐々に
西/北西の風 8kt
25日の 1500時(UTC)から
南西の風 5kt
視程: 10km
高度1500ftの千切れ雲あり
高度20000ftの曇り

TAF: CYFB 241738Z 2418/2518 34015KT P6SM BKN030 OVC100 TEMPO 2418/2423 5SM -SN OVC030 BECMG 2419/2421 30012G22KT FM242300 30012G22KT P6SM BKN015 TEMPO 2423/2515 P6SM -SN BKN025 BECMG 2500/2502 30008KT FM251500 22005KT P6SM BKN015 OVC200 RMK NXT FCST BY 250000Z

4,000以上の空港の気象観測と天気予報(METAR報とTAF報)

利用可能な観測所は地図上に黄色い丸と赤い丸で示す。

丸の上にカーソルを重ねると観測所名を参照できる。

次にクリックすると気象観測と天気予報を参照できる。

マップの切り替え:黒色「×」印の緑ボタンをクリックして拡大、「-」印の緑ボタンをクリックして縮小、緑色の三角印をクリックして隣りの地図に切り替え


METAR-TAF: